Terminal Aerodrome Forecast
Issued by NWS Quad Cities IA IL

Home | Current Version | Previous Version | Text Only | Print | Product List | Glossary On
Versions: 1 2 3 4 5 6 7 8 9 10 11 12 13 14 15 16 17 18 19 20 21 22 23 24 25
000
FTUS43 KDVN 261059 AAA
TAFMLI
TAF AMD
KMLI 261059Z 2611/2706 15010KT P6SM OVC012
     FM261200 14010KT 5SM -SHRA BR BKN015 OVC060
     FM261700 21014G22KT P6SM BKN035
     FM270100 23005KT 6SM BR BKN060=

USA.gov is the U.S. government's official web portal to all federal, state and local government web resources and services.